createdAt,value
2023-04-26T00:04:11.679Z,61223.38
2023-04-26T00:09:15.778Z,61224.97
2023-04-26T00:14:18.470Z,61218.72
2023-04-26T00:19:21.400Z,61222.41
2023-04-26T00:24:26.981Z,61185.97
2023-04-26T00:29:29.532Z,61218.84
2023-04-26T00:34:35.957Z,61186.28
2023-04-26T00:39:39.894Z,61168.88
2023-04-26T00:44:42.505Z,61202.47
2023-04-26T00:49:45.451Z,61178.88
2023-04-26T00:54:51.414Z,61172.41
2023-04-26T00:59:53.997Z,61167.47
2023-04-26T01:04:56.759Z,61146.47
2023-04-26T01:10:01.102Z,61159.44
2023-04-26T01:15:04.924Z,61156.25
2023-04-26T01:20:09.947Z,61176.25
2023-04-26T01:25:14.096Z,61195.84
2023-04-26T01:30:16.902Z,61185.97
2023-04-26T01:35:19.754Z,61151.38
2023-04-26T01:40:23.687Z,61175.41
2023-04-26T01:45:26.257Z,61188.22
2023-04-26T01:50:29.014Z,61214.72
2023-04-26T01:55:32.998Z,61218.31
2023-04-26T02:00:35.592Z,61249.97
2023-04-26T02:05:38.193Z,61245.63
2023-04-26T02:10:42.065Z,61243.91
2023-04-26T02:15:48.061Z,61195.00
2023-04-26T02:20:50.715Z,61183.09
2023-04-26T02:25:55.027Z,61199.41
2023-04-26T02:30:58.571Z,61188.16
2023-04-26T02:36:03.312Z,61187.56
2023-04-26T02:41:07.258Z,61175.09
2023-04-26T02:46:09.852Z,61208.44
2023-04-26T02:51:12.456Z,61232.72
2023-04-26T02:56:16.452Z,61246.63
2023-04-26T03:01:19.067Z,61259.00
2023-04-26T03:06:22.612Z,61251.69
2023-04-26T03:11:27.590Z,61242.09
2023-04-26T03:16:30.270Z,61212.44
2023-04-26T03:21:32.920Z,61197.06
2023-04-26T03:26:36.787Z,61160.41
2023-04-26T03:31:39.641Z,61138.53
2023-04-26T03:36:42.370Z,61125.06
2023-04-26T03:41:46.347Z,61138.22
2023-04-26T03:46:48.942Z,61122.31
2023-04-26T03:51:51.750Z,61132.03
2023-04-26T03:56:55.667Z,61133.16
2023-04-26T04:01:58.353Z,61116.75
2023-04-26T04:07:02.091Z,61080.97
2023-04-26T04:12:06.322Z,61088.25
2023-04-26T04:17:09.885Z,61104.38
2023-04-26T04:22:12.616Z,61099.34
2023-04-26T04:27:16.575Z,61101.81
2023-04-26T04:32:19.136Z,61117.72
2023-04-26T04:37:22.895Z,61122.50
2023-04-26T04:42:28.450Z,61157.84
2023-04-26T04:47:31.080Z,61122.78
2023-04-26T04:52:34.206Z,61159.72
2023-04-26T04:57:38.649Z,61141.03
2023-04-26T05:02:42.584Z,61132.44
2023-04-26T05:07:45.371Z,61187.94
2023-04-26T05:12:49.351Z,61187.63
2023-04-26T05:17:52.278Z,61190.50
2023-04-26T05:22:54.851Z,61210.31
2023-04-26T05:27:58.787Z,61240.34
2023-04-26T05:33:01.494Z,61284.50
2023-04-26T05:38:04.902Z,61294.47
2023-04-26T05:43:09.641Z,61312.88
2023-04-26T05:48:12.365Z,61332.97
2023-04-26T05:53:15.019Z,61334.59
2023-04-26T05:58:19.714Z,61374.38
2023-04-26T06:03:22.509Z,61388.13
2023-04-26T06:08:25.307Z,61401.59
2023-04-26T06:13:29.298Z,61479.41
2023-04-26T06:18:31.937Z,61470.63
2023-04-26T06:23:34.548Z,61481.22
2023-04-26T06:28:39.532Z,61513.22
2023-04-26T06:33:43.698Z,61505.75
2023-04-26T06:38:46.296Z,61622.41
2023-04-26T06:43:50.600Z,61778.56
2023-04-26T06:48:55.114Z,61942.97
2023-04-26T06:53:59.004Z,62071.50
2023-04-26T06:59:05.119Z,62030.81
2023-04-26T07:04:10.084Z,62095.03
2023-04-26T07:09:13.236Z,62205.09
2023-04-26T07:14:17.201Z,62253.97
2023-04-26T07:19:20.072Z,62293.63
2023-04-26T07:24:22.629Z,62298.72
2023-04-26T07:29:26.632Z,62342.16
2023-04-26T07:34:29.320Z,62335.41
2023-04-26T07:39:32.094Z,62335.66
2023-04-26T07:44:36.073Z,62333.63
2023-04-26T07:49:38.720Z,62309.06
2023-04-26T07:54:41.320Z,62269.41
2023-04-26T07:59:45.261Z,62269.34
2023-04-26T08:04:52.758Z,62371.38
2023-04-26T08:09:56.601Z,62370.78
2023-04-26T08:15:01.808Z,62405.91
2023-04-26T08:20:06.030Z,62177.38
2023-04-26T08:25:09.741Z,62122.34
2023-04-26T08:30:14.255Z,62111.19
2023-04-26T08:35:16.936Z,62014.91
2023-04-26T08:40:24.449Z,61977.16
2023-04-26T08:45:28.366Z,61916.19
2023-04-26T08:50:33.547Z,61890.13
2023-04-26T08:55:37.482Z,61796.72
2023-04-26T09:00:44.529Z,61777.38
2023-04-26T09:05:47.519Z,61739.25
2023-04-26T09:10:50.096Z,61716.16
2023-04-26T09:15:54.085Z,61752.44
2023-04-26T09:21:04.755Z,61759.56
2023-04-26T09:26:17.051Z,61832.44
2023-04-26T09:31:39.473Z,61842.38
2023-04-26T09:36:52.888Z,61973.22
2023-04-26T09:41:55.648Z,62096.50
2023-04-26T09:47:04.513Z,62183.66
2023-04-26T09:52:07.489Z,62225.19
2023-04-26T09:57:10.604Z,62245.72
2023-04-26T10:02:17.950Z,62209.78
2023-04-26T10:07:22.211Z,62120.75
2023-04-26T10:12:25.053Z,62112.56
2023-04-26T10:17:29.080Z,62046.88
2023-04-26T10:22:35.032Z,62010.84
2023-04-26T10:27:53.766Z,62007.09
2023-04-26T10:33:19.091Z,62078.31
2023-04-26T10:38:21.805Z,62060.22
2023-04-26T10:43:31.969Z,62031.69
2023-04-26T10:48:35.982Z,62024.47
2023-04-26T10:53:59.694Z,62049.25
2023-04-26T10:59:28.436Z,62079.63
2023-04-26T11:04:54.683Z,62000.63
2023-04-26T11:09:57.443Z,61961.66
2023-04-26T11:15:01.229Z,61975.19
2023-04-26T11:20:11.086Z,61968.19
2023-04-26T11:25:14.240Z,62008.28
2023-04-26T11:30:19.609Z,62118.53
2023-04-26T11:35:24.844Z,62242.19
2023-04-26T11:40:29.562Z,62462.91
2023-04-26T11:45:33.969Z,62321.28
2023-04-26T11:50:38.722Z,62147.06
2023-04-26T11:55:41.915Z,62059.78
2023-04-26T12:00:57.852Z,62009.88
2023-04-26T12:06:02.347Z,61998.97
2023-04-26T12:11:05.327Z,61944.53
2023-04-26T12:16:22.199Z,61971.94
2023-04-26T12:21:30.838Z,61986.13
2023-04-26T12:26:45.773Z,61947.25
2023-04-26T12:31:48.670Z,61903.50
2023-04-26T12:36:52.732Z,61880.66
2023-04-26T12:41:55.413Z,61895.13
2023-04-26T12:46:58.411Z,61865.91
2023-04-26T12:52:02.417Z,61838.75
2023-04-26T12:57:05.112Z,61809.50
2023-04-26T13:02:10.123Z,61785.84
2023-04-26T13:07:14.182Z,61855.88
2023-04-26T13:12:17.090Z,61835.78
2023-04-26T13:17:19.721Z,61869.50
2023-04-26T13:22:23.723Z,61890.75
2023-04-26T13:27:28.399Z,61931.88
2023-04-26T13:32:32.550Z,61980.13
2023-04-26T13:37:36.525Z,62004.03
2023-04-26T13:42:39.136Z,61979.88
2023-04-26T13:47:41.925Z,62048.72
2023-04-26T13:52:45.929Z,62053.88
2023-04-26T13:57:48.455Z,62035.84
2023-04-26T14:02:52.760Z,62037.25
2023-04-26T14:07:58.716Z,62024.94
2023-04-26T14:13:01.330Z,62006.91
2023-04-26T14:18:03.931Z,61978.19
2023-04-26T14:23:08.882Z,61967.28
2023-04-26T14:28:12.529Z,61988.88
2023-04-26T14:33:15.115Z,61949.84
2023-04-26T14:38:19.071Z,61969.81
2023-04-26T14:43:21.714Z,61966.00
2023-04-26T14:48:24.338Z,61971.91
2023-04-26T14:53:28.329Z,62079.09
2023-04-26T14:58:31.061Z,62107.78
2023-04-26T15:03:34.092Z,62076.72
2023-04-26T15:08:38.424Z,62046.75
2023-04-26T15:13:40.960Z,62071.84
2023-04-26T15:18:44.217Z,62014.03
2023-04-26T15:23:48.257Z,61963.50
2023-04-26T15:28:51.168Z,61996.16
2023-04-26T15:33:56.371Z,61985.44
2023-04-26T15:39:00.315Z,61959.72
2023-04-26T15:44:02.872Z,61936.34
2023-04-26T15:49:05.494Z,61947.00
2023-04-26T15:54:09.778Z,61944.78
2023-04-26T15:59:12.497Z,61954.00
2023-04-26T16:04:15.278Z,61908.56
2023-04-26T16:09:25.238Z,61873.56
2023-04-26T16:14:29.869Z,61880.44
2023-04-26T16:19:32.610Z,61893.91
2023-04-26T16:24:36.555Z,61788.72
2023-04-26T16:29:39.201Z,61873.94
2023-04-26T16:34:41.923Z,61857.22
2023-04-26T16:39:45.877Z,61827.06
2023-04-26T16:44:48.471Z,61859.69
2023-04-26T16:49:51.088Z,61857.41
2023-04-26T16:54:55.038Z,61877.00
2023-04-26T16:59:57.645Z,61868.84
2023-04-26T17:05:01.820Z,61873.84
2023-04-26T17:10:07.450Z,61859.78
2023-04-26T17:15:11.005Z,61876.66
2023-04-26T17:20:13.996Z,61830.72
2023-04-26T17:25:18.229Z,61873.69
2023-04-26T17:30:21.291Z,61883.47
2023-04-26T17:35:23.866Z,61852.84
2023-04-26T17:40:27.813Z,61827.09
2023-04-26T17:45:30.464Z,61834.53
2023-04-26T17:50:33.015Z,61779.38
2023-04-26T17:55:37.501Z,61777.91
2023-04-26T18:00:40.114Z,61795.84
2023-04-26T18:05:42.688Z,61766.19
2023-04-26T18:10:48.422Z,61742.56
2023-04-26T18:15:51.840Z,61730.69
2023-04-26T18:20:54.440Z,61706.38
2023-04-26T18:25:58.357Z,61712.00
2023-04-26T18:31:01.871Z,61660.66
2023-04-26T18:36:05.642Z,61654.41
2023-04-26T18:41:09.552Z,61653.88
2023-04-26T18:46:12.164Z,61614.03
2023-04-26T18:51:14.779Z,61556.47
2023-04-26T18:56:18.748Z,61557.72
2023-04-26T19:01:21.444Z,61545.97
2023-04-26T19:06:24.063Z,61499.41
2023-04-26T19:11:28.064Z,61474.09
2023-04-26T19:16:30.902Z,61465.94
2023-04-26T19:21:33.780Z,61467.25
2023-04-26T19:26:38.056Z,61463.22
2023-04-26T19:31:40.669Z,61492.59
2023-04-26T19:36:43.495Z,61492.50
2023-04-26T19:41:47.432Z,61490.38
2023-04-26T19:46:49.996Z,61454.28
2023-04-26T19:51:53.566Z,61449.59
2023-04-26T19:56:57.314Z,61445.41
2023-04-26T20:01:59.906Z,61432.84
2023-04-26T20:07:04.946Z,61413.66
2023-04-26T20:12:08.984Z,61368.81
2023-04-26T20:17:11.647Z,61376.59
2023-04-26T20:22:14.223Z,61334.13
2023-04-26T20:27:18.111Z,61344.69
2023-04-26T20:32:20.915Z,61342.22
2023-04-26T20:37:23.650Z,61359.03
2023-04-26T20:42:27.747Z,61315.09
2023-04-26T20:47:30.478Z,61339.47
2023-04-26T20:52:33.146Z,61324.28
2023-04-26T20:57:38.445Z,61320.41
2023-04-26T21:02:41.694Z,61315.38
2023-04-26T21:07:44.402Z,61274.81
2023-04-26T21:12:48.651Z,61278.16
2023-04-26T21:17:51.350Z,61269.69
2023-04-26T21:22:53.993Z,61253.09
2023-04-26T21:27:58.859Z,61261.50
2023-04-26T21:33:01.466Z,61238.53
2023-04-26T21:38:04.391Z,61223.16
2023-04-26T21:43:08.288Z,61201.28
2023-04-26T21:48:10.873Z,61221.06
2023-04-26T21:53:13.437Z,61190.09
2023-04-26T21:58:17.386Z,61210.09
2023-04-26T22:03:20.146Z,61177.06
2023-04-26T22:08:22.783Z,61178.72
2023-04-26T22:13:26.775Z,61170.66
2023-04-26T22:18:29.431Z,61160.09
2023-04-26T22:23:32.095Z,61171.34
2023-04-26T22:28:36.222Z,61140.13
2023-04-26T22:33:38.848Z,61162.34
2023-04-26T22:38:41.493Z,61131.38
2023-04-26T22:43:45.413Z,61096.44
2023-04-26T22:48:48.009Z,61140.38
2023-04-26T22:53:50.592Z,61104.72
2023-04-26T22:58:54.536Z,61104.50
2023-04-26T23:03:57.117Z,61117.38
2023-04-26T23:08:59.909Z,61115.78
2023-04-26T23:14:04.945Z,61102.16
2023-04-26T23:19:09.698Z,61087.38
2023-04-26T23:24:13.426Z,61131.19
2023-04-26T23:29:17.411Z,61073.13
2023-04-26T23:34:20.031Z,61093.59
2023-04-26T23:39:22.643Z,61114.88
2023-04-26T23:44:26.684Z,61078.84
2023-04-26T23:49:29.387Z,61097.16
2023-04-26T23:54:32.169Z,61074.34
2023-04-26T23:59:36.111Z,61082.59
